sensor_id;sensor_type;location;lat;lon;timestamp;P1;durP1;ratioP1;P2;durP2;ratioP2
31424;SDS011;18054;51.572;7.372;2023-07-13T00:02:34;8.82;;;2.97;;
31424;SDS011;18054;51.572;7.372;2023-07-13T00:05:02;23.70;;;3.25;;
31424;SDS011;18054;51.572;7.372;2023-07-13T00:09:57;10.73;;;2.53;;
31424;SDS011;18054;51.572;7.372;2023-07-13T00:12:27;15.65;;;4.18;;
31424;SDS011;18054;51.572;7.372;2023-07-13T00:14:57;9.73;;;2.88;;
31424;SDS011;18054;51.572;7.372;2023-07-13T00:17:24;15.73;;;3.83;;
31424;SDS011;18054;51.572;7.372;2023-07-13T00:19:55;13.13;;;2.90;;
31424;SDS011;18054;51.572;7.372;2023-07-13T00:22:23;22.48;;;4.03;;
31424;SDS011;18054;51.572;7.372;2023-07-13T00:24:52;13.43;;;3.03;;
31424;SDS011;18054;51.572;7.372;2023-07-13T00:27:22;14.52;;;3.25;;
31424;SDS011;18054;51.572;7.372;2023-07-13T00:29:49;15.60;;;2.67;;
31424;SDS011;18054;51.572;7.372;2023-07-13T00:32:26;13.02;;;3.15;;
31424;SDS011;18054;51.572;7.372;2023-07-13T00:34:55;9.68;;;2.50;;
31424;SDS011;18054;51.572;7.372;2023-07-13T00:37:23;10.70;;;2.45;;
31424;SDS011;18054;51.572;7.372;2023-07-13T00:39:51;12.40;;;2.40;;
31424;SDS011;18054;51.572;7.372;2023-07-13T00:42:20;8.77;;;2.45;;
31424;SDS011;18054;51.572;7.372;2023-07-13T00:45:01;8.60;;;2.47;;
31424;SDS011;18054;51.572;7.372;2023-07-13T00:47:28;15.70;;;2.83;;
31424;SDS011;18054;51.572;7.372;2023-07-13T00:49:57;10.45;;;2.67;;
31424;SDS011;18054;51.572;7.372;2023-07-13T00:52:27;13.82;;;2.83;;
31424;SDS011;18054;51.572;7.372;2023-07-13T00:54:55;12.77;;;2.35;;
31424;SDS011;18054;51.572;7.372;2023-07-13T00:59:52;18.38;;;2.60;;
31424;SDS011;18054;51.572;7.372;2023-07-13T01:02:23;10.60;;;2.42;;
31424;SDS011;18054;51.572;7.372;2023-07-13T01:04:55;9.43;;;1.95;;
31424;SDS011;18054;51.572;7.372;2023-07-13T01:07:24;12.40;;;1.92;;
31424;SDS011;18054;51.572;7.372;2023-07-13T01:09:55;19.80;;;2.42;;
31424;SDS011;18054;51.572;7.372;2023-07-13T01:12:22;13.35;;;2.15;;
31424;SDS011;18054;51.572;7.372;2023-07-13T01:14:56;6.95;;;2.05;;
31424;SDS011;18054;51.572;7.372;2023-07-13T01:17:23;8.48;;;1.85;;
31424;SDS011;18054;51.572;7.372;2023-07-13T01:19:51;17.17;;;1.90;;
31424;SDS011;18054;51.572;7.372;2023-07-13T01:24:54;9.35;;;1.52;;
31424;SDS011;18054;51.572;7.372;2023-07-13T01:27:22;9.57;;;1.77;;
31424;SDS011;18054;51.572;7.372;2023-07-13T01:29:51;5.05;;;1.73;;
31424;SDS011;18054;51.572;7.372;2023-07-13T01:32:21;14.68;;;2.17;;
31424;SDS011;18054;51.572;7.372;2023-07-13T01:34:54;14.77;;;2.78;;
31424;SDS011;18054;51.572;7.372;2023-07-13T01:37:21;16.65;;;1.80;;
31424;SDS011;18054;51.572;7.372;2023-07-13T01:39:52;8.48;;;3.05;;
31424;SDS011;18054;51.572;7.372;2023-07-13T01:42:20;7.75;;;1.80;;
31424;SDS011;18054;51.572;7.372;2023-07-13T01:44:48;11.43;;;1.85;;
31424;SDS011;18054;51.572;7.372;2023-07-13T01:47:16;6.82;;;1.92;;
31424;SDS011;18054;51.572;7.372;2023-07-13T01:49:44;6.55;;;1.83;;
31424;SDS011;18054;51.572;7.372;2023-07-13T01:52:13;9.10;;;1.90;;
31424;SDS011;18054;51.572;7.372;2023-07-13T01:54:43;11.02;;;1.90;;
31424;SDS011;18054;51.572;7.372;2023-07-13T01:57:16;7.88;;;1.70;;
31424;SDS011;18054;51.572;7.372;2023-07-13T02:02:18;7.78;;;1.95;;
31424;SDS011;18054;51.572;7.372;2023-07-13T02:04:49;7.88;;;1.88;;
31424;SDS011;18054;51.572;7.372;2023-07-13T02:07:17;7.82;;;2.00;;
31424;SDS011;18054;51.572;7.372;2023-07-13T02:09:45;9.55;;;2.10;;
31424;SDS011;18054;51.572;7.372;2023-07-13T02:12:14;6.78;;;1.88;;
31424;SDS011;18054;51.572;7.372;2023-07-13T02:14:42;10.55;;;2.00;;
31424;SDS011;18054;51.572;7.372;2023-07-13T02:19:38;16.83;;;2.08;;
31424;SDS011;18054;51.572;7.372;2023-07-13T02:22:06;8.20;;;1.75;;
31424;SDS011;18054;51.572;7.372;2023-07-13T02:24:34;11.57;;;1.92;;
31424;SDS011;18054;51.572;7.372;2023-07-13T02:27:01;10.00;;;1.65;;
31424;SDS011;18054;51.572;7.372;2023-07-13T02:31:56;7.93;;;1.98;;
31424;SDS011;18054;51.572;7.372;2023-07-13T02:34:26;8.65;;;2.00;;
31424;SDS011;18054;51.572;7.372;2023-07-13T02:36:59;9.45;;;1.90;;
31424;SDS011;18054;51.572;7.372;2023-07-13T02:39:27;14.43;;;2.00;;
31424;SDS011;18054;51.572;7.372;2023-07-13T02:41:54;7.65;;;1.98;;
31424;SDS011;18054;51.572;7.372;2023-07-13T02:44:22;7.82;;;2.05;;
31424;SDS011;18054;51.572;7.372;2023-07-13T02:46:49;5.75;;;1.60;;
31424;SDS011;18054;51.572;7.372;2023-07-13T02:49:17;10.35;;;1.95;;
31424;SDS011;18054;51.572;7.372;2023-07-13T02:51:44;12.48;;;2.45;;
31424;SDS011;18054;51.572;7.372;2023-07-13T02:54:13;12.45;;;2.17;;
31424;SDS011;18054;51.572;7.372;2023-07-13T02:56:40;7.28;;;2.05;;
31424;SDS011;18054;51.572;7.372;2023-07-13T02:59:09;5.57;;;1.50;;
31424;SDS011;18054;51.572;7.372;2023-07-13T03:04:04;11.30;;;1.67;;
31424;SDS011;18054;51.572;7.372;2023-07-13T03:06:34;6.30;;;1.45;;
31424;SDS011;18054;51.572;7.372;2023-07-13T03:09:02;8.50;;;1.50;;
31424;SDS011;18054;51.572;7.372;2023-07-13T03:11:34;8.77;;;1.70;;
31424;SDS011;18054;51.572;7.372;2023-07-13T03:14:15;9.38;;;1.95;;
31424;SDS011;18054;51.572;7.372;2023-07-13T03:16:42;10.43;;;1.83;;
31424;SDS011;18054;51.572;7.372;2023-07-13T03:19:11;13.38;;;3.25;;
31424;SDS011;18054;51.572;7.372;2023-07-13T03:21:39;14.52;;;2.13;;
31424;SDS011;18054;51.572;7.372;2023-07-13T03:24:07;9.85;;;1.85;;
31424;SDS011;18054;51.572;7.372;2023-07-13T03:26:36;10.05;;;1.88;;
31424;SDS011;18054;51.572;7.372;2023-07-13T03:29:04;9.82;;;1.70;;
31424;SDS011;18054;51.572;7.372;2023-07-13T03:31:32;14.15;;;2.22;;
31424;SDS011;18054;51.572;7.372;2023-07-13T03:36:29;11.15;;;2.28;;
31424;SDS011;18054;51.572;7.372;2023-07-13T03:39:00;7.93;;;1.98;;
31424;SDS011;18054;51.572;7.372;2023-07-13T03:41:40;9.60;;;1.90;;
31424;SDS011;18054;51.572;7.372;2023-07-13T03:44:08;11.70;;;2.53;;
31424;SDS011;18054;51.572;7.372;2023-07-13T03:46:35;10.55;;;1.50;;
31424;SDS011;18054;51.572;7.372;2023-07-13T03:49:03;12.98;;;2.55;;
31424;SDS011;18054;51.572;7.372;2023-07-13T03:51:32;12.25;;;2.30;;
31424;SDS011;18054;51.572;7.372;2023-07-13T03:53:59;9.13;;;1.75;;
31424;SDS011;18054;51.572;7.372;2023-07-13T03:56:29;13.55;;;2.47;;
31424;SDS011;18054;51.572;7.372;2023-07-13T04:01:25;13.55;;;1.98;;
31424;SDS011;18054;51.572;7.372;2023-07-13T04:03:53;10.35;;;2.03;;
31424;SDS011;18054;51.572;7.372;2023-07-13T04:06:23;11.70;;;2.00;;
31424;SDS011;18054;51.572;7.372;2023-07-13T04:08:51;11.93;;;2.40;;
31424;SDS011;18054;51.572;7.372;2023-07-13T04:11:19;10.27;;;2.53;;
31424;SDS011;18054;51.572;7.372;2023-07-13T04:16:15;12.18;;;2.03;;
31424;SDS011;18054;51.572;7.372;2023-07-13T04:21:11;7.25;;;1.85;;
31424;SDS011;18054;51.572;7.372;2023-07-13T04:23:39;10.40;;;1.98;;
31424;SDS011;18054;51.572;7.372;2023-07-13T04:26:06;15.95;;;3.17;;
31424;SDS011;18054;51.572;7.372;2023-07-13T04:28:36;9.15;;;2.00;;
31424;SDS011;18054;51.572;7.372;2023-07-13T04:31:04;14.93;;;2.63;;
31424;SDS011;18054;51.572;7.372;2023-07-13T04:33:31;7.90;;;2.10;;
31424;SDS011;18054;51.572;7.372;2023-07-13T04:35:59;10.57;;;1.70;;
31424;SDS011;18054;51.572;7.372;2023-07-13T04:38:29;11.15;;;2.00;;
31424;SDS011;18054;51.572;7.372;2023-07-13T04:40:58;9.63;;;2.35;;
31424;SDS011;18054;51.572;7.372;2023-07-13T04:43:27;15.80;;;2.33;;
31424;SDS011;18054;51.572;7.372;2023-07-13T04:45:55;12.07;;;1.92;;
31424;SDS011;18054;51.572;7.372;2023-07-13T04:48:23;10.35;;;2.20;;
31424;SDS011;18054;51.572;7.372;2023-07-13T04:50:55;8.38;;;1.92;;
31424;SDS011;18054;51.572;7.372;2023-07-13T04:53:23;14.68;;;2.30;;
31424;SDS011;18054;51.572;7.372;2023-07-13T04:55:51;14.18;;;2.58;;
31424;SDS011;18054;51.572;7.372;2023-07-13T04:58:19;15.68;;;2.78;;
31424;SDS011;18054;51.572;7.372;2023-07-13T05:00:47;12.88;;;2.00;;
31424;SDS011;18054;51.572;7.372;2023-07-13T05:03:15;11.10;;;2.38;;
31424;SDS011;18054;51.572;7.372;2023-07-13T05:05:43;7.00;;;1.70;;
31424;SDS011;18054;51.572;7.372;2023-07-13T05:08:10;11.73;;;2.90;;
31424;SDS011;18054;51.572;7.372;2023-07-13T05:10:37;6.35;;;1.98;;
31424;SDS011;18054;51.572;7.372;2023-07-13T05:13:06;17.83;;;2.67;;
31424;SDS011;18054;51.572;7.372;2023-07-13T05:15:34;9.68;;;2.15;;
31424;SDS011;18054;51.572;7.372;2023-07-13T05:18:01;13.27;;;2.53;;
31424;SDS011;18054;51.572;7.372;2023-07-13T05:20:29;9.63;;;1.90;;
31424;SDS011;18054;51.572;7.372;2023-07-13T05:22:56;14.45;;;2.38;;
31424;SDS011;18054;51.572;7.372;2023-07-13T05:25:24;13.90;;;2.33;;
31424;SDS011;18054;51.572;7.372;2023-07-13T05:27:51;5.93;;;1.85;;
31424;SDS011;18054;51.572;7.372;2023-07-13T05:32:48;8.27;;;2.13;;
31424;SDS011;18054;51.572;7.372;2023-07-13T05:35:15;16.75;;;2.75;;
31424;SDS011;18054;51.572;7.372;2023-07-13T05:37:43;20.42;;;3.35;;
31424;SDS011;18054;51.572;7.372;2023-07-13T05:40:10;9.25;;;2.22;;
31424;SDS011;18054;51.572;7.372;2023-07-13T05:42:38;11.02;;;2.00;;
31424;SDS011;18054;51.572;7.372;2023-07-13T05:45:06;10.35;;;2.60;;
31424;SDS011;18054;51.572;7.372;2023-07-13T05:50:02;9.15;;;2.20;;
31424;SDS011;18054;51.572;7.372;2023-07-13T05:52:32;19.50;;;2.65;;
31424;SDS011;18054;51.572;7.372;2023-07-13T05:54:59;18.70;;;3.10;;
31424;SDS011;18054;51.572;7.372;2023-07-13T05:57:26;7.93;;;1.88;;
31424;SDS011;18054;51.572;7.372;2023-07-13T05:59:54;23.33;;;4.35;;
31424;SDS011;18054;51.572;7.372;2023-07-13T06:02:21;12.27;;;3.05;;
31424;SDS011;18054;51.572;7.372;2023-07-13T06:04:49;15.82;;;2.92;;
31424;SDS011;18054;51.572;7.372;2023-07-13T06:07:19;11.75;;;2.80;;
31424;SDS011;18054;51.572;7.372;2023-07-13T06:09:47;12.15;;;2.22;;
31424;SDS011;18054;51.572;7.372;2023-07-13T06:12:14;10.23;;;2.35;;
31424;SDS011;18054;51.572;7.372;2023-07-13T06:14:42;14.85;;;2.92;;
31424;SDS011;18054;51.572;7.372;2023-07-13T06:17:09;13.10;;;3.45;;
31424;SDS011;18054;51.572;7.372;2023-07-13T06:19:37;12.82;;;2.72;;
31424;SDS011;18054;51.572;7.372;2023-07-13T06:22:05;13.77;;;3.03;;
31424;SDS011;18054;51.572;7.372;2023-07-13T06:24:33;18.52;;;3.28;;
31424;SDS011;18054;51.572;7.372;2023-07-13T06:27:01;14.70;;;2.70;;
31424;SDS011;18054;51.572;7.372;2023-07-13T06:29:28;18.05;;;2.92;;
31424;SDS011;18054;51.572;7.372;2023-07-13T06:31:56;18.67;;;3.55;;
31424;SDS011;18054;51.572;7.372;2023-07-13T06:34:23;12.98;;;2.83;;
31424;SDS011;18054;51.572;7.372;2023-07-13T06:36:51;17.42;;;2.67;;
31424;SDS011;18054;51.572;7.372;2023-07-13T06:39:18;17.52;;;3.22;;
31424;SDS011;18054;51.572;7.372;2023-07-13T06:41:47;15.20;;;3.00;;
31424;SDS011;18054;51.572;7.372;2023-07-13T06:44:15;13.90;;;3.38;;
31424;SDS011;18054;51.572;7.372;2023-07-13T06:46:42;17.05;;;4.40;;
31424;SDS011;18054;51.572;7.372;2023-07-13T06:49:10;15.52;;;3.13;;
31424;SDS011;18054;51.572;7.372;2023-07-13T06:51:37;13.95;;;3.15;;
31424;SDS011;18054;51.572;7.372;2023-07-13T06:54:04;16.42;;;3.85;;
31424;SDS011;18054;51.572;7.372;2023-07-13T06:56:32;13.05;;;3.63;;
31424;SDS011;18054;51.572;7.372;2023-07-13T06:59:01;16.17;;;4.22;;
31424;SDS011;18054;51.572;7.372;2023-07-13T07:01:28;14.38;;;3.10;;
31424;SDS011;18054;51.572;7.372;2023-07-13T07:03:55;17.92;;;3.20;;
31424;SDS011;18054;51.572;7.372;2023-07-13T07:06:23;16.67;;;3.60;;
31424;SDS011;18054;51.572;7.372;2023-07-13T07:08:51;11.77;;;2.92;;
31424;SDS011;18054;51.572;7.372;2023-07-13T07:11:20;15.10;;;4.93;;
31424;SDS011;18054;51.572;7.372;2023-07-13T07:13:49;22.52;;;4.18;;
31424;SDS011;18054;51.572;7.372;2023-07-13T07:16:18;21.88;;;4.40;;
31424;SDS011;18054;51.572;7.372;2023-07-13T07:18:46;14.73;;;3.70;;
31424;SDS011;18054;51.572;7.372;2023-07-13T07:23:41;14.75;;;3.38;;
31424;SDS011;18054;51.572;7.372;2023-07-13T07:26:09;11.98;;;3.97;;
31424;SDS011;18054;51.572;7.372;2023-07-13T07:28:37;17.42;;;3.75;;
31424;SDS011;18054;51.572;7.372;2023-07-13T07:31:08;18.42;;;4.65;;
31424;SDS011;18054;51.572;7.372;2023-07-13T07:33:40;15.23;;;3.65;;
31424;SDS011;18054;51.572;7.372;2023-07-13T07:36:07;14.80;;;3.30;;
31424;SDS011;18054;51.572;7.372;2023-07-13T07:38:38;12.85;;;3.97;;
31424;SDS011;18054;51.572;7.372;2023-07-13T07:41:05;10.43;;;2.42;;
31424;SDS011;18054;51.572;7.372;2023-07-13T07:43:36;18.27;;;4.38;;
31424;SDS011;18054;51.572;7.372;2023-07-13T07:48:31;8.57;;;2.53;;
31424;SDS011;18054;51.572;7.372;2023-07-13T07:51:00;14.32;;;3.28;;
31424;SDS011;18054;51.572;7.372;2023-07-13T07:53:27;12.27;;;2.88;;
31424;SDS011;18054;51.572;7.372;2023-07-13T07:55:58;15.77;;;3.50;;
31424;SDS011;18054;51.572;7.372;2023-07-13T07:58:45;15.05;;;3.83;;
31424;SDS011;18054;51.572;7.372;2023-07-13T08:01:16;11.23;;;2.80;;
31424;SDS011;18054;51.572;7.372;2023-07-13T08:03:46;14.35;;;4.13;;
31424;SDS011;18054;51.572;7.372;2023-07-13T08:06:18;18.35;;;3.55;;
31424;SDS011;18054;51.572;7.372;2023-07-13T08:08:49;9.95;;;3.38;;
31424;SDS011;18054;51.572;7.372;2023-07-13T08:11:17;17.42;;;3.72;;
31424;SDS011;18054;51.572;7.372;2023-07-13T08:13:47;10.13;;;2.83;;
31424;SDS011;18054;51.572;7.372;2023-07-13T08:16:17;15.98;;;3.97;;
31424;SDS011;18054;51.572;7.372;2023-07-13T08:18:45;11.65;;;2.53;;
31424;SDS011;18054;51.572;7.372;2023-07-13T08:21:12;12.82;;;3.03;;
31424;SDS011;18054;51.572;7.372;2023-07-13T08:23:41;11.60;;;2.78;;
31424;SDS011;18054;51.572;7.372;2023-07-13T08:26:09;10.60;;;2.63;;
31424;SDS011;18054;51.572;7.372;2023-07-13T08:28:36;12.88;;;2.60;;
31424;SDS011;18054;51.572;7.372;2023-07-13T08:31:04;23.83;;;4.10;;
31424;SDS011;18054;51.572;7.372;2023-07-13T08:33:34;16.40;;;2.70;;
31424;SDS011;18054;51.572;7.372;2023-07-13T08:36:01;10.75;;;2.83;;
31424;SDS011;18054;51.572;7.372;2023-07-13T08:38:29;9.30;;;2.47;;
31424;SDS011;18054;51.572;7.372;2023-07-13T08:40:58;12.10;;;3.00;;
31424;SDS011;18054;51.572;7.372;2023-07-13T08:43:27;11.68;;;3.05;;
31424;SDS011;18054;51.572;7.372;2023-07-13T08:45:57;13.07;;;3.00;;
31424;SDS011;18054;51.572;7.372;2023-07-13T08:48:27;14.30;;;3.75;;
31424;SDS011;18054;51.572;7.372;2023-07-13T08:50:55;12.18;;;3.50;;
31424;SDS011;18054;51.572;7.372;2023-07-13T08:53:29;12.73;;;3.22;;
31424;SDS011;18054;51.572;7.372;2023-07-13T08:55:59;8.07;;;2.20;;
31424;SDS011;18054;51.572;7.372;2023-07-13T08:58:27;10.23;;;2.85;;
31424;SDS011;18054;51.572;7.372;2023-07-13T09:00:56;11.27;;;2.90;;
31424;SDS011;18054;51.572;7.372;2023-07-13T09:03:26;12.25;;;3.15;;
31424;SDS011;18054;51.572;7.372;2023-07-13T09:05:58;15.27;;;2.67;;
31424;SDS011;18054;51.572;7.372;2023-07-13T09:08:34;12.75;;;2.95;;
31424;SDS011;18054;51.572;7.372;2023-07-13T09:11:08;10.73;;;2.83;;
31424;SDS011;18054;51.572;7.372;2023-07-13T09:13:40;11.93;;;2.55;;
31424;SDS011;18054;51.572;7.372;2023-07-13T09:16:10;10.23;;;2.47;;
31424;SDS011;18054;51.572;7.372;2023-07-13T09:18:39;11.93;;;2.97;;
31424;SDS011;18054;51.572;7.372;2023-07-13T09:21:09;9.90;;;2.45;;
31424;SDS011;18054;51.572;7.372;2023-07-13T09:23:38;12.00;;;3.17;;
31424;SDS011;18054;51.572;7.372;2023-07-13T09:26:13;12.05;;;2.85;;
31424;SDS011;18054;51.572;7.372;2023-07-13T09:28:41;8.40;;;2.83;;
31424;SDS011;18054;51.572;7.372;2023-07-13T09:31:11;12.38;;;2.95;;
31424;SDS011;18054;51.572;7.372;2023-07-13T09:33:40;10.77;;;2.38;;
31424;SDS011;18054;51.572;7.372;2023-07-13T09:36:17;10.50;;;2.58;;
31424;SDS011;18054;51.572;7.372;2023-07-13T09:38:45;16.40;;;2.63;;
31424;SDS011;18054;51.572;7.372;2023-07-13T09:41:18;8.82;;;2.45;;
31424;SDS011;18054;51.572;7.372;2023-07-13T09:44:06;14.40;;;3.22;;
31424;SDS011;18054;51.572;7.372;2023-07-13T09:46:35;7.40;;;2.47;;
31424;SDS011;18054;51.572;7.372;2023-07-13T09:49:02;13.00;;;2.83;;
31424;SDS011;18054;51.572;7.372;2023-07-13T09:51:29;9.23;;;3.13;;
31424;SDS011;18054;51.572;7.372;2023-07-13T09:53:57;17.35;;;2.78;;
31424;SDS011;18054;51.572;7.372;2023-07-13T09:56:27;19.35;;;3.70;;
31424;SDS011;18054;51.572;7.372;2023-07-13T09:58:55;14.52;;;2.75;;
31424;SDS011;18054;51.572;7.372;2023-07-13T10:01:33;10.68;;;2.45;;
31424;SDS011;18054;51.572;7.372;2023-07-13T10:04:02;11.40;;;3.35;;
31424;SDS011;18054;51.572;7.372;2023-07-13T10:06:29;10.32;;;2.92;;
31424;SDS011;18054;51.572;7.372;2023-07-13T10:08:57;10.20;;;3.22;;
31424;SDS011;18054;51.572;7.372;2023-07-13T10:13:54;13.00;;;2.75;;
31424;SDS011;18054;51.572;7.372;2023-07-13T10:16:22;12.20;;;3.63;;
31424;SDS011;18054;51.572;7.372;2023-07-13T10:18:52;12.23;;;2.65;;
31424;SDS011;18054;51.572;7.372;2023-07-13T10:21:22;20.08;;;3.55;;
31424;SDS011;18054;51.572;7.372;2023-07-13T10:24:03;11.48;;;3.03;;
31424;SDS011;18054;51.572;7.372;2023-07-13T10:26:33;11.10;;;2.95;;
31424;SDS011;18054;51.572;7.372;2023-07-13T10:29:04;12.15;;;2.92;;
31424;SDS011;18054;51.572;7.372;2023-07-13T10:31:33;12.15;;;3.10;;
31424;SDS011;18054;51.572;7.372;2023-07-13T10:34:02;13.88;;;2.85;;
31424;SDS011;18054;51.572;7.372;2023-07-13T10:36:31;14.45;;;3.28;;
31424;SDS011;18054;51.572;7.372;2023-07-13T10:39:01;18.13;;;3.20;;
31424;SDS011;18054;51.572;7.372;2023-07-13T10:41:30;12.27;;;2.72;;
31424;SDS011;18054;51.572;7.372;2023-07-13T10:43:58;10.77;;;2.92;;
31424;SDS011;18054;51.572;7.372;2023-07-13T10:46:27;18.45;;;3.97;;
31424;SDS011;18054;51.572;7.372;2023-07-13T10:48:57;14.50;;;2.70;;
31424;SDS011;18054;51.572;7.372;2023-07-13T10:51:25;10.40;;;3.17;;
31424;SDS011;18054;51.572;7.372;2023-07-13T10:54:10;12.13;;;2.50;;
31424;SDS011;18054;51.572;7.372;2023-07-13T10:56:45;22.17;;;3.17;;
31424;SDS011;18054;51.572;7.372;2023-07-13T10:59:17;12.95;;;2.70;;
31424;SDS011;18054;51.572;7.372;2023-07-13T11:01:54;15.18;;;3.08;;
31424;SDS011;18054;51.572;7.372;2023-07-13T11:09:18;9.93;;;2.45;;
31424;SDS011;18054;51.572;7.372;2023-07-13T11:11:46;13.02;;;2.78;;
31424;SDS011;18054;51.572;7.372;2023-07-13T11:17:00;14.82;;;3.03;;
31424;SDS011;18054;51.572;7.372;2023-07-13T11:19:52;14.80;;;3.10;;
31424;SDS011;18054;51.572;7.372;2023-07-13T11:22:24;14.48;;;3.15;;
31424;SDS011;18054;51.572;7.372;2023-07-13T11:24:56;16.25;;;3.63;;
31424;SDS011;18054;51.572;7.372;2023-07-13T11:27:31;15.38;;;2.83;;
31424;SDS011;18054;51.572;7.372;2023-07-13T11:30:22;25.30;;;3.88;;
31424;SDS011;18054;51.572;7.372;2023-07-13T11:32:51;10.75;;;2.88;;
31424;SDS011;18054;51.572;7.372;2023-07-13T11:35:23;14.30;;;3.13;;
31424;SDS011;18054;51.572;7.372;2023-07-13T11:37:51;11.32;;;3.00;;
31424;SDS011;18054;51.572;7.372;2023-07-13T11:40:18;10.18;;;2.28;;
31424;SDS011;18054;51.572;7.372;2023-07-13T11:42:46;8.95;;;2.63;;
31424;SDS011;18054;51.572;7.372;2023-07-13T11:45:20;12.02;;;3.30;;
31424;SDS011;18054;51.572;7.372;2023-07-13T11:48:01;12.50;;;2.55;;
31424;SDS011;18054;51.572;7.372;2023-07-13T11:50:30;7.72;;;2.00;;
31424;SDS011;18054;51.572;7.372;2023-07-13T11:52:57;8.55;;;2.30;;
31424;SDS011;18054;51.572;7.372;2023-07-13T11:55:26;14.60;;;2.67;;
31424;SDS011;18054;51.572;7.372;2023-07-13T11:57:56;8.98;;;2.08;;
31424;SDS011;18054;51.572;7.372;2023-07-13T12:00:25;8.50;;;2.35;;
31424;SDS011;18054;51.572;7.372;2023-07-13T12:02:56;10.70;;;2.83;;
31424;SDS011;18054;51.572;7.372;2023-07-13T12:05:26;9.52;;;2.00;;
31424;SDS011;18054;51.572;7.372;2023-07-13T12:07:55;12.43;;;2.78;;
31424;SDS011;18054;51.572;7.372;2023-07-13T12:10:23;9.57;;;2.70;;
31424;SDS011;18054;51.572;7.372;2023-07-13T12:12:52;8.57;;;2.47;;
31424;SDS011;18054;51.572;7.372;2023-07-13T12:15:20;8.13;;;2.38;;
31424;SDS011;18054;51.572;7.372;2023-07-13T12:17:49;11.68;;;2.90;;
31424;SDS011;18054;51.572;7.372;2023-07-13T12:20:19;8.40;;;2.38;;
31424;SDS011;18054;51.572;7.372;2023-07-13T12:22:47;9.60;;;2.08;;
31424;SDS011;18054;51.572;7.372;2023-07-13T12:25:17;9.98;;;1.90;;
31424;SDS011;18054;51.572;7.372;2023-07-13T12:27:49;20.90;;;2.60;;
31424;SDS011;18054;51.572;7.372;2023-07-13T12:30:24;9.57;;;2.33;;
31424;SDS011;18054;51.572;7.372;2023-07-13T12:32:56;20.48;;;3.30;;
31424;SDS011;18054;51.572;7.372;2023-07-13T12:35:24;7.57;;;1.98;;
31424;SDS011;18054;51.572;7.372;2023-07-13T12:37:52;8.85;;;2.38;;
31424;SDS011;18054;51.572;7.372;2023-07-13T12:40:21;6.95;;;2.05;;
31424;SDS011;18054;51.572;7.372;2023-07-13T12:42:53;13.93;;;2.75;;
31424;SDS011;18054;51.572;7.372;2023-07-13T12:45:22;16.42;;;2.88;;
31424;SDS011;18054;51.572;7.372;2023-07-13T12:47:52;8.68;;;2.40;;
31424;SDS011;18054;51.572;7.372;2023-07-13T12:50:21;9.63;;;2.15;;
31424;SDS011;18054;51.572;7.372;2023-07-13T12:52:50;9.80;;;2.15;;
31424;SDS011;18054;51.572;7.372;2023-07-13T12:55:18;7.30;;;2.17;;
31424;SDS011;18054;51.572;7.372;2023-07-13T12:57:52;11.32;;;1.98;;
31424;SDS011;18054;51.572;7.372;2023-07-13T13:00:24;8.32;;;2.20;;
31424;SDS011;18054;51.572;7.372;2023-07-13T13:02:52;5.93;;;1.80;;
31424;SDS011;18054;51.572;7.372;2023-07-13T13:05:25;7.90;;;2.17;;
31424;SDS011;18054;51.572;7.372;2023-07-13T13:07:53;9.77;;;2.17;;
31424;SDS011;18054;51.572;7.372;2023-07-13T13:12:49;10.80;;;1.75;;
31424;SDS011;18054;51.572;7.372;2023-07-13T13:15:18;6.97;;;1.90;;
31424;SDS011;18054;51.572;7.372;2023-07-13T13:17:47;9.15;;;2.38;;
31424;SDS011;18054;51.572;7.372;2023-07-13T13:20:15;6.10;;;1.92;;
31424;SDS011;18054;51.572;7.372;2023-07-13T13:22:43;10.75;;;1.95;;
31424;SDS011;18054;51.572;7.372;2023-07-13T13:25:10;10.77;;;2.33;;
31424;SDS011;18054;51.572;7.372;2023-07-13T13:27:38;8.70;;;2.13;;
31424;SDS011;18054;51.572;7.372;2023-07-13T13:30:09;16.17;;;2.30;;
31424;SDS011;18054;51.572;7.372;2023-07-13T13:32:40;15.82;;;2.40;;
31424;SDS011;18054;51.572;7.372;2023-07-13T13:35:12;14.80;;;2.75;;
31424;SDS011;18054;51.572;7.372;2023-07-13T13:37:39;8.50;;;2.47;;
31424;SDS011;18054;51.572;7.372;2023-07-13T13:40:13;21.83;;;3.08;;
31424;SDS011;18054;51.572;7.372;2023-07-13T13:42:41;11.02;;;2.28;;
31424;SDS011;18054;51.572;7.372;2023-07-13T13:45:09;7.55;;;2.47;;
31424;SDS011;18054;51.572;7.372;2023-07-13T13:47:36;9.10;;;2.78;;
31424;SDS011;18054;51.572;7.372;2023-07-13T13:50:12;17.00;;;3.08;;
31424;SDS011;18054;51.572;7.372;2023-07-13T13:52:42;13.32;;;3.30;;
31424;SDS011;18054;51.572;7.372;2023-07-13T13:55:13;15.25;;;4.13;;
31424;SDS011;18054;51.572;7.372;2023-07-13T13:57:41;9.65;;;2.80;;
31424;SDS011;18054;51.572;7.372;2023-07-13T14:00:09;17.10;;;4.63;;
31424;SDS011;18054;51.572;7.372;2023-07-13T14:02:40;9.88;;;4.07;;
31424;SDS011;18054;51.572;7.372;2023-07-13T14:07:37;13.27;;;4.25;;
31424;SDS011;18054;51.572;7.372;2023-07-13T14:10:08;10.25;;;3.88;;
31424;SDS011;18054;51.572;7.372;2023-07-13T14:12:36;10.70;;;4.15;;
31424;SDS011;18054;51.572;7.372;2023-07-13T14:15:04;13.13;;;4.05;;
31424;SDS011;18054;51.572;7.372;2023-07-13T14:20:01;11.65;;;3.88;;
31424;SDS011;18054;51.572;7.372;2023-07-13T14:22:30;8.77;;;3.80;;
31424;SDS011;18054;51.572;7.372;2023-07-13T14:24:59;9.60;;;3.97;;
31424;SDS011;18054;51.572;7.372;2023-07-13T14:27:27;7.80;;;3.45;;
31424;SDS011;18054;51.572;7.372;2023-07-13T14:29:54;13.52;;;6.00;;
31424;SDS011;18054;51.572;7.372;2023-07-13T14:32:22;8.95;;;3.53;;
31424;SDS011;18054;51.572;7.372;2023-07-13T14:34:49;9.05;;;3.42;;
31424;SDS011;18054;51.572;7.372;2023-07-13T14:37:17;10.23;;;3.78;;
31424;SDS011;18054;51.572;7.372;2023-07-13T14:39:51;10.40;;;3.42;;
31424;SDS011;18054;51.572;7.372;2023-07-13T14:42:20;8.32;;;3.38;;
31424;SDS011;18054;51.572;7.372;2023-07-13T14:44:48;8.35;;;3.17;;
31424;SDS011;18054;51.572;7.372;2023-07-13T14:47:15;6.85;;;3.10;;
31424;SDS011;18054;51.572;7.372;2023-07-13T14:49:43;9.65;;;4.28;;
31424;SDS011;18054;51.572;7.372;2023-07-13T14:52:13;9.80;;;3.63;;
31424;SDS011;18054;51.572;7.372;2023-07-13T14:54:42;10.65;;;3.92;;
31424;SDS011;18054;51.572;7.372;2023-07-13T14:57:10;9.40;;;3.72;;
31424;SDS011;18054;51.572;7.372;2023-07-13T14:59:40;9.70;;;3.53;;
31424;SDS011;18054;51.572;7.372;2023-07-13T15:02:14;11.75;;;3.72;;
31424;SDS011;18054;51.572;7.372;2023-07-13T15:04:42;12.88;;;3.60;;
31424;SDS011;18054;51.572;7.372;2023-07-13T15:09:37;8.30;;;3.42;;
31424;SDS011;18054;51.572;7.372;2023-07-13T15:12:05;7.68;;;3.35;;
31424;SDS011;18054;51.572;7.372;2023-07-13T15:14:32;12.13;;;3.22;;
31424;SDS011;18054;51.572;7.372;2023-07-13T15:17:01;8.50;;;3.03;;
31424;SDS011;18054;51.572;7.372;2023-07-13T15:19:29;11.57;;;3.22;;
31424;SDS011;18054;51.572;7.372;2023-07-13T15:21:57;7.95;;;2.95;;
31424;SDS011;18054;51.572;7.372;2023-07-13T15:24:25;7.70;;;3.10;;
31424;SDS011;18054;51.572;7.372;2023-07-13T15:26:52;9.55;;;3.08;;
31424;SDS011;18054;51.572;7.372;2023-07-13T15:29:20;6.20;;;2.53;;
31424;SDS011;18054;51.572;7.372;2023-07-13T15:31:49;11.45;;;2.97;;
31424;SDS011;18054;51.572;7.372;2023-07-13T15:34:18;8.93;;;2.30;;
31424;SDS011;18054;51.572;7.372;2023-07-13T15:36:47;6.35;;;2.25;;
31424;SDS011;18054;51.572;7.372;2023-07-13T15:39:15;6.45;;;2.17;;
31424;SDS011;18054;51.572;7.372;2023-07-13T15:41:43;5.53;;;2.03;;
31424;SDS011;18054;51.572;7.372;2023-07-13T15:44:21;10.40;;;2.60;;
31424;SDS011;18054;51.572;7.372;2023-07-13T15:46:49;7.93;;;2.55;;
31424;SDS011;18054;51.572;7.372;2023-07-13T15:49:18;6.15;;;2.10;;